Time,TemperatureF,DewpointF,PressureIn,WindDirection,WindDirectionDegrees,WindSpeedMPH,WindSpeedGustMPH,Humidity,HourlyPrecipIn,Conditions,Clouds,dailyrainin,SoftwareType,DateUTC
2017-03-25 00:00:00,46.7,41.5,30.09,NE,34,5.0,19.0,82,0.00,,,0.40,Wunderground v.1.15,2017-03-25 04:00:00,
2017-03-25 00:05:00,46.5,41.0,30.09,ENE,71,6.0,19.0,81,0.00,,,0.40,Wunderground v.1.15,2017-03-25 04:05:00,
2017-03-25 00:10:00,46.5,41.0,30.09,ENE,66,7.0,9.0,81,0.00,,,0.40,Wunderground v.1.15,2017-03-25 04:10:00,
2017-03-25 00:15:00,46.3,40.8,30.09,ENE,63,6.0,9.0,81,0.00,,,0.40,Wunderground v.1.15,2017-03-25 04:15:00,
2017-03-25 00:20:00,46.3,41.1,30.08,NE,47,5.0,8.0,82,0.00,,,0.00,Wunderground v.1.15,2017-03-25 04:20:00,
2017-03-25 00:25:00,46.1,40.9,30.08,East,99,5.0,8.0,82,0.00,,,0.00,Wunderground v.1.15,2017-03-25 04:25:00,
2017-03-25 00:35:00,46.0,40.8,30.08,NE,53,4.0,17.0,82,0.00,,,0.00,Wunderground v.1.15,2017-03-25 04:35:00,
2017-03-25 00:40:00,46.0,40.8,30.09,ENE,59,3.0,17.0,82,0.00,,,0.00,Wunderground v.1.15,2017-03-25 04:40:00,
2017-03-25 00:45:00,45.8,40.6,30.08,ENE,58,4.0,17.0,82,0.00,,,0.00,Wunderground v.1.15,2017-03-25 04:45:00,
2017-03-25 00:55:00,45.5,40.6,30.08,ENE,64,6.0,17.0,83,0.00,,,0.00,Wunderground v.1.15,2017-03-25 04:55:00,
2017-03-25 01:00:00,45.5,40.6,30.09,ENE,67,5.0,5.0,83,0.00,,,0.00,Wunderground v.1.15,2017-03-25 05:00:00,
2017-03-25 01:05:00,45.5,40.6,30.09,ENE,64,4.0,5.0,83,0.00,,,0.00,Wunderground v.1.15,2017-03-25 05:05:00,
2017-03-25 01:10:00,45.4,40.5,30.09,NE,34,4.0,6.0,83,0.00,,,0.00,Wunderground v.1.15,2017-03-25 05:10:00,
2017-03-25 01:20:00,45.3,40.4,30.09,NE,49,5.0,5.0,83,0.00,,,0.00,Wunderground v.1.15,2017-03-25 05:20:00,
2017-03-25 01:30:00,45.3,40.4,30.09,NE,49,4.0,6.0,83,0.00,,,0.00,Wunderground v.1.15,2017-03-25 05:30:00,
2017-03-25 01:35:00,45.2,40.3,30.10,NNE,28,4.0,9.0,83,0.00,,,0.00,Wunderground v.1.15,2017-03-25 05:35:00,
2017-03-25 01:40:00,45.0,40.1,30.10,ENE,61,5.0,5.0,83,0.00,,,0.00,Wunderground v.1.15,2017-03-25 05:40:00,
2017-03-25 01:45:00,44.9,39.7,30.10,NE,39,5.0,12.0,82,0.00,,,0.00,Wunderground v.1.15,2017-03-25 05:45:00,
2017-03-25 01:50:00,44.9,39.7,30.10,NNE,32,5.0,5.0,82,0.00,,,0.00,Wunderground v.1.15,2017-03-25 05:50:00,
2017-03-25 01:55:00,44.8,39.6,30.10,NE,47,6.0,6.0,82,0.00,,,0.00,Wunderground v.1.15,2017-03-25 05:55:00,
2017-03-25 02:00:00,44.8,39.6,30.09,ENE,77,5.0,5.0,82,0.00,,,0.00,Wunderground v.1.15,2017-03-25 06:00:00,
2017-03-25 02:10:00,44.8,39.6,30.09,ENE,70,4.0,7.0,82,0.00,,,0.00,Wunderground v.1.15,2017-03-25 06:10:00,
2017-03-25 02:15:00,44.8,39.6,30.09,NNE,29,4.0,7.0,82,0.00,,,0.00,Wunderground v.1.15,2017-03-25 06:15:00,
2017-03-25 02:20:00,44.9,39.7,30.12,NW,311,4.0,5.0,82,0.00,,,0.00,Wunderground v.1.15,2017-03-25 06:20:00,
2017-03-25 02:25:00,45.1,39.9,30.11,ENE,61,4.0,5.0,82,0.00,,,0.00,Wunderground v.1.15,2017-03-25 06:25:00,
2017-03-25 02:30:00,45.1,40.2,30.10,East,96,3.0,3.0,83,0.00,,,0.00,Wunderground v.1.15,2017-03-25 06:30:00,
2017-03-25 02:35:00,45.1,40.2,30.10,NE,43,2.0,12.0,83,0.00,,,0.00,Wunderground v.1.15,2017-03-25 06:35:00,
2017-03-25 02:40:00,45.1,40.2,30.09,NE,51,3.0,12.0,83,0.00,,,0.00,Wunderground v.1.15,2017-03-25 06:40:00,
2017-03-25 02:45:00,45.1,39.9,30.09,ENE,66,3.0,12.0,82,0.00,,,0.00,Wunderground v.1.15,2017-03-25 06:45:00,
2017-03-25 02:55:00,45.0,40.1,30.09,ENE,68,4.0,12.0,83,0.00,,,0.00,Wunderground v.1.15,2017-03-25 06:55:00,
2017-03-25 03:00:00,45.1,39.9,30.09,East,79,3.0,12.0,82,0.00,,,0.00,Wunderground v.1.15,2017-03-25 07:00:00,
2017-03-25 03:05:00,45.1,40.2,30.10,NNE,18,3.0,12.0,83,0.00,,,0.00,Wunderground v.1.15,2017-03-25 07:05:00,
2017-03-25 03:10:00,45.0,39.8,30.10,NE,49,4.0,4.0,82,0.00,,,0.00,Wunderground v.1.15,2017-03-25 07:10:00,
2017-03-25 03:15:00,45.1,39.9,30.10,East,96,4.0,4.0,82,0.00,,,0.00,Wunderground v.1.15,2017-03-25 07:15:00,
2017-03-25 03:20:00,45.0,39.8,30.09,NE,56,3.0,5.0,82,0.00,,,0.00,Wunderground v.1.15,2017-03-25 07:20:00,
2017-03-25 03:25:00,44.9,40.0,30.09,East,82,4.0,5.0,83,0.00,,,0.00,Wunderground v.1.15,2017-03-25 07:25:00,
2017-03-25 03:30:00,44.9,40.0,30.09,ENE,72,4.0,4.0,83,0.00,,,0.00,Wunderground v.1.15,2017-03-25 07:30:00,
2017-03-25 03:40:00,44.9,40.0,30.07,ENE,70,2.0,11.0,83,0.00,,,0.00,Wunderground v.1.15,2017-03-25 07:40:00,
2017-03-25 03:45:00,44.9,40.0,30.07,ENE,65,3.0,11.0,83,0.00,,,0.00,Wunderground v.1.15,2017-03-25 07:45:00,